sensor_id;sensor_type;location;lat;lon;timestamp;temperature;humidity
51793;DHT22;37850;53.178;6.376;2022-10-13T00:00:30;9.90;99.90
51793;DHT22;37850;53.178;6.376;2022-10-13T00:03:01;9.90;99.90
51793;DHT22;37850;53.178;6.376;2022-10-13T00:05:28;10.00;99.90
51793;DHT22;37850;53.178;6.376;2022-10-13T00:07:54;10.00;99.90
51793;DHT22;37850;53.178;6.376;2022-10-13T00:10:20;10.00;99.90
51793;DHT22;37850;53.178;6.376;2022-10-13T00:12:45;10.00;99.90
51793;DHT22;37850;53.178;6.376;2022-10-13T00:15:11;10.10;99.90
51793;DHT22;37850;53.178;6.376;2022-10-13T00:17:37;10.00;99.90
51793;DHT22;37850;53.178;6.376;2022-10-13T00:20:04;10.00;99.90
51793;DHT22;37850;53.178;6.376;2022-10-13T00:22:30;10.00;99.90
51793;DHT22;37850;53.178;6.376;2022-10-13T00:24:57;10.00;99.90
51793;DHT22;37850;53.178;6.376;2022-10-13T00:27:23;10.10;99.90
51793;DHT22;37850;53.178;6.376;2022-10-13T00:29:49;10.00;99.90
51793;DHT22;37850;53.178;6.376;2022-10-13T00:32:15;10.00;99.90
51793;DHT22;37850;53.178;6.376;2022-10-13T00:34:41;10.30;99.90
51793;DHT22;37850;53.178;6.376;2022-10-13T00:37:07;10.00;99.90
51793;DHT22;37850;53.178;6.376;2022-10-13T00:39:32;10.00;99.90
51793;DHT22;37850;53.178;6.376;2022-10-13T00:41:59;10.00;99.90
51793;DHT22;37850;53.178;6.376;2022-10-13T00:47:44;10.00;99.90
51793;DHT22;37850;53.178;6.376;2022-10-13T00:50:15;10.00;99.90
51793;DHT22;37850;53.178;6.376;2022-10-13T00:52:43;10.20;99.90
51793;DHT22;37850;53.178;6.376;2022-10-13T00:55:11;10.00;99.90
51793;DHT22;37850;53.178;6.376;2022-10-13T00:57:39;10.00;99.90
51793;DHT22;37850;53.178;6.376;2022-10-13T01:00:06;10.00;99.90
51793;DHT22;37850;53.178;6.376;2022-10-13T01:02:35;10.00;99.90
51793;DHT22;37850;53.178;6.376;2022-10-13T01:05:03;10.00;99.90
51793;DHT22;37850;53.178;6.376;2022-10-13T01:07:29;10.00;99.90
51793;DHT22;37850;53.178;6.376;2022-10-13T01:09:55;10.00;99.90
51793;DHT22;37850;53.178;6.376;2022-10-13T01:15:13;10.00;99.90
51793;DHT22;37850;53.178;6.376;2022-10-13T01:18:12;10.00;99.90
51793;DHT22;37850;53.178;6.376;2022-10-13T01:29:12;10.00;99.90
51793;DHT22;37850;53.178;6.376;2022-10-13T01:31:52;10.00;99.90
51793;DHT22;37850;53.178;6.376;2022-10-13T01:37:03;10.00;99.90
51793;DHT22;37850;53.178;6.376;2022-10-13T01:39:45;10.00;99.90
51793;DHT22;37850;53.178;6.376;2022-10-13T01:42:21;10.00;99.90
51793;DHT22;37850;53.178;6.376;2022-10-13T01:44:59;10.00;99.90
51793;DHT22;37850;53.178;6.376;2022-10-13T01:47:27;10.00;99.90
51793;DHT22;37850;53.178;6.376;2022-10-13T01:49:55;10.00;99.90
51793;DHT22;37850;53.178;6.376;2022-10-13T01:52:25;10.00;99.90
51793;DHT22;37850;53.178;6.376;2022-10-13T01:54:53;10.20;99.90
51793;DHT22;37850;53.178;6.376;2022-10-13T01:57:38;10.00;99.90
51793;DHT22;37850;53.178;6.376;2022-10-13T02:02:49;10.00;99.90
51793;DHT22;37850;53.178;6.376;2022-10-13T02:05:46;10.00;99.90
51793;DHT22;37850;53.178;6.376;2022-10-13T02:13:28;10.00;99.90
51793;DHT22;37850;53.178;6.376;2022-10-13T02:15:58;10.00;99.90
51793;DHT22;37850;53.178;6.376;2022-10-13T02:18:30;10.00;99.90
51793;DHT22;37850;53.178;6.376;2022-10-13T02:20:56;10.30;99.90
51793;DHT22;37850;53.178;6.376;2022-10-13T02:23:23;9.90;99.90
51793;DHT22;37850;53.178;6.376;2022-10-13T02:25:49;10.00;99.90
51793;DHT22;37850;53.178;6.376;2022-10-13T02:28:16;10.00;99.90
51793;DHT22;37850;53.178;6.376;2022-10-13T02:30:43;10.00;99.90
51793;DHT22;37850;53.178;6.376;2022-10-13T02:33:11;10.00;99.90
51793;DHT22;37850;53.178;6.376;2022-10-13T02:35:37;10.00;99.90
51793;DHT22;37850;53.178;6.376;2022-10-13T02:38:03;10.00;99.90
51793;DHT22;37850;53.178;6.376;2022-10-13T02:40:29;10.00;99.90
51793;DHT22;37850;53.178;6.376;2022-10-13T02:42:55;10.10;99.90
51793;DHT22;37850;53.178;6.376;2022-10-13T02:45:21;10.00;99.90
51793;DHT22;37850;53.178;6.376;2022-10-13T02:47:47;10.00;99.90
51793;DHT22;37850;53.178;6.376;2022-10-13T02:50:13;10.00;99.90
51793;DHT22;37850;53.178;6.376;2022-10-13T02:52:38;10.00;99.90
51793;DHT22;37850;53.178;6.376;2022-10-13T02:55:05;9.90;99.90
51793;DHT22;37850;53.178;6.376;2022-10-13T02:57:31;9.90;99.90
51793;DHT22;37850;53.178;6.376;2022-10-13T02:59:57;10.00;99.90
51793;DHT22;37850;53.178;6.376;2022-10-13T03:02:22;9.90;99.90
51793;DHT22;37850;53.178;6.376;2022-10-13T03:04:50;10.00;99.90
51793;DHT22;37850;53.178;6.376;2022-10-13T03:07:16;9.90;99.90
51793;DHT22;37850;53.178;6.376;2022-10-13T03:09:41;10.00;99.90
51793;DHT22;37850;53.178;6.376;2022-10-13T03:12:07;10.10;99.90
51793;DHT22;37850;53.178;6.376;2022-10-13T03:14:33;10.00;99.90
51793;DHT22;37850;53.178;6.376;2022-10-13T03:16:59;10.00;99.90
51793;DHT22;37850;53.178;6.376;2022-10-13T03:19:24;10.00;99.90
51793;DHT22;37850;53.178;6.376;2022-10-13T03:21:50;10.00;99.90
51793;DHT22;37850;53.178;6.376;2022-10-13T03:24:16;10.00;99.90
51793;DHT22;37850;53.178;6.376;2022-10-13T03:26:43;10.00;99.90
51793;DHT22;37850;53.178;6.376;2022-10-13T03:29:15;10.00;99.90
51793;DHT22;37850;53.178;6.376;2022-10-13T03:31:42;10.00;99.90
51793;DHT22;37850;53.178;6.376;2022-10-13T03:34:09;10.00;99.90
51793;DHT22;37850;53.178;6.376;2022-10-13T03:36:35;10.00;99.90
51793;DHT22;37850;53.178;6.376;2022-10-13T03:39:01;10.00;99.90
51793;DHT22;37850;53.178;6.376;2022-10-13T03:41:27;10.00;99.90
51793;DHT22;37850;53.178;6.376;2022-10-13T03:43:53;10.00;99.90
51793;DHT22;37850;53.178;6.376;2022-10-13T03:46:19;10.00;99.90
51793;DHT22;37850;53.178;6.376;2022-10-13T03:48:45;10.00;99.90
51793;DHT22;37850;53.178;6.376;2022-10-13T03:51:17;10.10;99.90
51793;DHT22;37850;53.178;6.376;2022-10-13T03:53:44;10.00;99.90
51793;DHT22;37850;53.178;6.376;2022-10-13T03:56:13;10.10;99.90
51793;DHT22;37850;53.178;6.376;2022-10-13T03:58:40;10.10;99.90
51793;DHT22;37850;53.178;6.376;2022-10-13T04:01:06;10.10;99.90
51793;DHT22;37850;53.178;6.376;2022-10-13T04:03:32;10.10;99.90
51793;DHT22;37850;53.178;6.376;2022-10-13T04:06:03;10.10;99.90
51793;DHT22;37850;53.178;6.376;2022-10-13T04:08:30;10.10;99.90
51793;DHT22;37850;53.178;6.376;2022-10-13T04:11:00;10.10;99.90
51793;DHT22;37850;53.178;6.376;2022-10-13T04:13:26;10.10;99.90
51793;DHT22;37850;53.178;6.376;2022-10-13T04:15:52;10.10;99.90
51793;DHT22;37850;53.178;6.376;2022-10-13T04:18:18;10.10;99.90
51793;DHT22;37850;53.178;6.376;2022-10-13T04:20:43;10.10;99.90
51793;DHT22;37850;53.178;6.376;2022-10-13T04:23:10;10.00;99.90
51793;DHT22;37850;53.178;6.376;2022-10-13T04:25:38;10.10;99.90
51793;DHT22;37850;53.178;6.376;2022-10-13T04:28:05;10.10;99.90
51793;DHT22;37850;53.178;6.376;2022-10-13T04:30:33;10.00;99.90
51793;DHT22;37850;53.178;6.376;2022-10-13T04:33:00;10.10;99.90
51793;DHT22;37850;53.178;6.376;2022-10-13T04:35:26;10.10;99.90
51793;DHT22;37850;53.178;6.376;2022-10-13T04:37:51;10.10;99.90
51793;DHT22;37850;53.178;6.376;2022-10-13T04:40:17;10.10;99.90
51793;DHT22;37850;53.178;6.376;2022-10-13T04:42:43;10.10;99.90
51793;DHT22;37850;53.178;6.376;2022-10-13T04:45:09;10.10;99.90
51793;DHT22;37850;53.178;6.376;2022-10-13T04:47:35;10.10;99.90
51793;DHT22;37850;53.178;6.376;2022-10-13T04:50:02;10.40;99.90
51793;DHT22;37850;53.178;6.376;2022-10-13T04:52:28;10.10;99.90
51793;DHT22;37850;53.178;6.376;2022-10-13T04:54:54;10.10;99.90
51793;DHT22;37850;53.178;6.376;2022-10-13T04:57:20;10.10;99.90
51793;DHT22;37850;53.178;6.376;2022-10-13T04:59:45;10.10;99.90
51793;DHT22;37850;53.178;6.376;2022-10-13T05:02:11;10.10;99.90
51793;DHT22;37850;53.178;6.376;2022-10-13T05:04:37;10.10;99.90
51793;DHT22;37850;53.178;6.376;2022-10-13T05:07:03;10.10;99.90
51793;DHT22;37850;53.178;6.376;2022-10-13T05:09:29;10.10;99.90
51793;DHT22;37850;53.178;6.376;2022-10-13T05:11:54;10.10;99.90
51793;DHT22;37850;53.178;6.376;2022-10-13T05:14:21;10.10;99.90
51793;DHT22;37850;53.178;6.376;2022-10-13T05:16:47;10.10;99.90
51793;DHT22;37850;53.178;6.376;2022-10-13T05:19:13;10.10;99.90
51793;DHT22;37850;53.178;6.376;2022-10-13T05:21:39;10.10;99.90
51793;DHT22;37850;53.178;6.376;2022-10-13T05:24:05;10.00;99.90
51793;DHT22;37850;53.178;6.376;2022-10-13T05:26:33;10.10;99.90
51793;DHT22;37850;53.178;6.376;2022-10-13T05:29:01;10.10;99.90
51793;DHT22;37850;53.178;6.376;2022-10-13T05:31:28;10.40;99.90
51793;DHT22;37850;53.178;6.376;2022-10-13T05:33:54;10.10;99.90
51793;DHT22;37850;53.178;6.376;2022-10-13T05:36:31;10.40;99.90
51793;DHT22;37850;53.178;6.376;2022-10-13T05:39:03;10.10;99.90
51793;DHT22;37850;53.178;6.376;2022-10-13T05:41:29;10.10;99.90
51793;DHT22;37850;53.178;6.376;2022-10-13T05:44:03;10.20;99.90
51793;DHT22;37850;53.178;6.376;2022-10-13T05:46:29;10.10;99.90
51793;DHT22;37850;53.178;6.376;2022-10-13T05:48:55;10.20;99.90
51793;DHT22;37850;53.178;6.376;2022-10-13T05:51:26;10.10;99.90
51793;DHT22;37850;53.178;6.376;2022-10-13T05:54:17;10.20;99.90
51793;DHT22;37850;53.178;6.376;2022-10-13T05:56:52;10.10;99.90
51793;DHT22;37850;53.178;6.376;2022-10-13T05:59:20;10.20;99.90
51793;DHT22;37850;53.178;6.376;2022-10-13T06:01:48;10.20;99.90
51793;DHT22;37850;53.178;6.376;2022-10-13T06:04:21;10.20;99.90
51793;DHT22;37850;53.178;6.376;2022-10-13T06:06:49;10.20;99.90
51793;DHT22;37850;53.178;6.376;2022-10-13T06:09:15;10.20;99.90
51793;DHT22;37850;53.178;6.376;2022-10-13T06:11:42;10.20;99.90
51793;DHT22;37850;53.178;6.376;2022-10-13T06:14:08;10.20;99.90
51793;DHT22;37850;53.178;6.376;2022-10-13T06:16:34;10.20;99.90
51793;DHT22;37850;53.178;6.376;2022-10-13T06:19:04;10.30;99.90
51793;DHT22;37850;53.178;6.376;2022-10-13T06:21:30;10.30;99.90
51793;DHT22;37850;53.178;6.376;2022-10-13T06:23:56;10.30;99.90
51793;DHT22;37850;53.178;6.376;2022-10-13T06:26:21;10.30;99.90
51793;DHT22;37850;53.178;6.376;2022-10-13T06:28:47;10.30;99.90
51793;DHT22;37850;53.178;6.376;2022-10-13T06:31:13;10.30;99.90
51793;DHT22;37850;53.178;6.376;2022-10-13T06:33:39;10.30;99.90
51793;DHT22;37850;53.178;6.376;2022-10-13T06:36:05;10.30;99.90
51793;DHT22;37850;53.178;6.376;2022-10-13T06:38:31;10.30;99.90
51793;DHT22;37850;53.178;6.376;2022-10-13T06:41:01;10.40;99.90
51793;DHT22;37850;53.178;6.376;2022-10-13T06:43:27;10.30;99.90
51793;DHT22;37850;53.178;6.376;2022-10-13T06:45:57;10.40;99.90
51793;DHT22;37850;53.178;6.376;2022-10-13T06:48:23;10.40;99.90
51793;DHT22;37850;53.178;6.376;2022-10-13T06:50:49;10.40;99.90
51793;DHT22;37850;53.178;6.376;2022-10-13T06:53:14;10.50;99.90
51793;DHT22;37850;53.178;6.376;2022-10-13T06:55:40;10.50;99.90
51793;DHT22;37850;53.178;6.376;2022-10-13T06:58:09;10.50;99.90
51793;DHT22;37850;53.178;6.376;2022-10-13T07:00:40;10.50;99.90
51793;DHT22;37850;53.178;6.376;2022-10-13T07:03:06;10.50;99.90
51793;DHT22;37850;53.178;6.376;2022-10-13T07:05:32;10.50;99.90
51793;DHT22;37850;53.178;6.376;2022-10-13T07:07:57;10.50;99.90
51793;DHT22;37850;53.178;6.376;2022-10-13T07:10:23;10.60;99.90
51793;DHT22;37850;53.178;6.376;2022-10-13T07:12:49;10.60;99.90
51793;DHT22;37850;53.178;6.376;2022-10-13T07:15:15;10.60;99.90
51793;DHT22;37850;53.178;6.376;2022-10-13T07:17:41;10.60;99.90
51793;DHT22;37850;53.178;6.376;2022-10-13T07:20:06;10.70;99.90
51793;DHT22;37850;53.178;6.376;2022-10-13T07:22:32;10.70;99.90
51793;DHT22;37850;53.178;6.376;2022-10-13T07:24:58;10.80;99.90
51793;DHT22;37850;53.178;6.376;2022-10-13T07:27:24;10.80;99.90
51793;DHT22;37850;53.178;6.376;2022-10-13T07:29:50;10.90;99.90
51793;DHT22;37850;53.178;6.376;2022-10-13T07:32:16;10.90;99.90
51793;DHT22;37850;53.178;6.376;2022-10-13T07:34:41;11.00;99.90
51793;DHT22;37850;53.178;6.376;2022-10-13T07:37:07;11.00;99.90
51793;DHT22;37850;53.178;6.376;2022-10-13T07:39:33;11.00;99.90
51793;DHT22;37850;53.178;6.376;2022-10-13T07:41:59;11.40;99.90
51793;DHT22;37850;53.178;6.376;2022-10-13T07:44:25;11.10;99.90
51793;DHT22;37850;53.178;6.376;2022-10-13T07:46:51;11.10;99.90
51793;DHT22;37850;53.178;6.376;2022-10-13T07:49:16;11.20;99.90
51793;DHT22;37850;53.178;6.376;2022-10-13T07:51:42;11.20;99.90
51793;DHT22;37850;53.178;6.376;2022-10-13T07:54:09;11.30;99.90
51793;DHT22;37850;53.178;6.376;2022-10-13T07:56:34;11.30;99.90
51793;DHT22;37850;53.178;6.376;2022-10-13T07:59:01;11.30;99.90
51793;DHT22;37850;53.178;6.376;2022-10-13T08:01:28;11.40;99.90
51793;DHT22;37850;53.178;6.376;2022-10-13T08:03:54;11.40;99.90
51793;DHT22;37850;53.178;6.376;2022-10-13T08:06:21;11.50;99.90
51793;DHT22;37850;53.178;6.376;2022-10-13T08:08:47;11.50;99.90
51793;DHT22;37850;53.178;6.376;2022-10-13T08:11:14;11.60;99.90
51793;DHT22;37850;53.178;6.376;2022-10-13T08:13:40;11.60;99.90
51793;DHT22;37850;53.178;6.376;2022-10-13T08:16:06;11.60;99.90
51793;DHT22;37850;53.178;6.376;2022-10-13T08:18:31;11.70;99.90
51793;DHT22;37850;53.178;6.376;2022-10-13T08:21:02;11.70;99.90
51793;DHT22;37850;53.178;6.376;2022-10-13T08:23:28;11.70;99.90
51793;DHT22;37850;53.178;6.376;2022-10-13T08:25:54;11.70;99.90
51793;DHT22;37850;53.178;6.376;2022-10-13T08:28:26;11.80;99.90
51793;DHT22;37850;53.178;6.376;2022-10-13T08:30:55;11.80;99.90
51793;DHT22;37850;53.178;6.376;2022-10-13T08:33:24;11.80;99.90
51793;DHT22;37850;53.178;6.376;2022-10-13T08:35:51;11.80;99.90
51793;DHT22;37850;53.178;6.376;2022-10-13T08:38:17;11.80;99.90
51793;DHT22;37850;53.178;6.376;2022-10-13T08:40:48;11.90;99.90
51793;DHT22;37850;53.178;6.376;2022-10-13T08:43:19;11.90;99.90
51793;DHT22;37850;53.178;6.376;2022-10-13T08:45:49;11.90;99.90
51793;DHT22;37850;53.178;6.376;2022-10-13T08:48:25;11.90;99.90
51793;DHT22;37850;53.178;6.376;2022-10-13T08:50:56;11.90;99.90
51793;DHT22;37850;53.178;6.376;2022-10-13T08:53:27;12.00;99.90
51793;DHT22;37850;53.178;6.376;2022-10-13T08:56:03;11.90;99.90
51793;DHT22;37850;53.178;6.376;2022-10-13T08:58:32;12.00;99.90
51793;DHT22;37850;53.178;6.376;2022-10-13T09:06:37;12.10;99.90
51793;DHT22;37850;53.178;6.376;2022-10-13T09:09:04;12.10;99.90
51793;DHT22;37850;53.178;6.376;2022-10-13T09:11:36;12.10;99.90
51793;DHT22;37850;53.178;6.376;2022-10-13T09:14:07;12.10;99.90
51793;DHT22;37850;53.178;6.376;2022-10-13T09:16:42;12.20;99.90
51793;DHT22;37850;53.178;6.376;2022-10-13T09:19:28;12.20;99.90
51793;DHT22;37850;53.178;6.376;2022-10-13T09:21:57;12.20;99.90
51793;DHT22;37850;53.178;6.376;2022-10-13T09:24:25;12.20;99.90
51793;DHT22;37850;53.178;6.376;2022-10-13T09:27:10;12.20;99.90
51793;DHT22;37850;53.178;6.376;2022-10-13T09:29:36;12.30;99.90
51793;DHT22;37850;53.178;6.376;2022-10-13T09:32:20;12.50;99.90
51793;DHT22;37850;53.178;6.376;2022-10-13T09:34:46;12.40;99.90
51793;DHT22;37850;53.178;6.376;2022-10-13T09:37:23;12.40;99.90
51793;DHT22;37850;53.178;6.376;2022-10-13T09:42:50;12.40;99.90
51793;DHT22;37850;53.178;6.376;2022-10-13T09:45:19;12.50;99.90
51793;DHT22;37850;53.178;6.376;2022-10-13T09:48:05;12.50;99.90
51793;DHT22;37850;53.178;6.376;2022-10-13T09:50:34;12.50;99.90
51793;DHT22;37850;53.178;6.376;2022-10-13T09:53:24;12.60;99.90
51793;DHT22;37850;53.178;6.376;2022-10-13T09:56:28;12.60;99.90
51793;DHT22;37850;53.178;6.376;2022-10-13T09:59:22;12.60;99.90
51793;DHT22;37850;53.178;6.376;2022-10-13T10:01:49;12.70;99.90
51793;DHT22;37850;53.178;6.376;2022-10-13T10:04:21;12.70;99.90
51793;DHT22;37850;53.178;6.376;2022-10-13T10:06:48;12.70;99.90
51793;DHT22;37850;53.178;6.376;2022-10-13T10:11:45;12.80;99.90
51793;DHT22;37850;53.178;6.376;2022-10-13T10:14:28;12.80;99.90
51793;DHT22;37850;53.178;6.376;2022-10-13T10:23:00;12.90;99.90
51793;DHT22;37850;53.178;6.376;2022-10-13T10:26:04;12.90;99.90
51793;DHT22;37850;53.178;6.376;2022-10-13T10:33:58;13.00;99.90
51793;DHT22;37850;53.178;6.376;2022-10-13T10:36:40;13.00;99.90
51793;DHT22;37850;53.178;6.376;2022-10-13T10:39:22;13.00;99.90
51793;DHT22;37850;53.178;6.376;2022-10-13T10:44:33;13.00;99.90
51793;DHT22;37850;53.178;6.376;2022-10-13T10:47:35;13.10;99.90
51793;DHT22;37850;53.178;6.376;2022-10-13T10:50:04;13.10;99.90
51793;DHT22;37850;53.178;6.376;2022-10-13T10:52:44;13.10;99.90
51793;DHT22;37850;53.178;6.376;2022-10-13T10:55:34;13.10;99.90
51793;DHT22;37850;53.178;6.376;2022-10-13T10:58:31;13.10;99.90
51793;DHT22;37850;53.178;6.376;2022-10-13T11:08:44;13.20;99.90
51793;DHT22;37850;53.178;6.376;2022-10-13T11:16:35;13.30;99.90
51793;DHT22;37850;53.178;6.376;2022-10-13T11:40:21;13.60;99.90
51793;DHT22;37850;53.178;6.376;2022-10-13T11:45:39;13.60;99.90
51793;DHT22;37850;53.178;6.376;2022-10-13T11:51:04;13.60;99.90
51793;DHT22;37850;53.178;6.376;2022-10-13T11:56:52;13.70;99.90
51793;DHT22;37850;53.178;6.376;2022-10-13T11:59:34;13.70;99.90
51793;DHT22;37850;53.178;6.376;2022-10-13T12:04:37;13.70;99.90
51793;DHT22;37850;53.178;6.376;2022-10-13T12:07:06;13.80;99.90
51793;DHT22;37850;53.178;6.376;2022-10-13T12:09:35;13.80;99.90
51793;DHT22;37850;53.178;6.376;2022-10-13T12:12:13;13.80;99.90
51793;DHT22;37850;53.178;6.376;2022-10-13T12:14:43;13.90;99.90
51793;DHT22;37850;53.178;6.376;2022-10-13T12:17:26;13.90;99.90
51793;DHT22;37850;53.178;6.376;2022-10-13T12:19:57;13.90;99.90
51793;DHT22;37850;53.178;6.376;2022-10-13T12:22:24;13.90;99.90
51793;DHT22;37850;53.178;6.376;2022-10-13T12:25:02;13.90;99.90
51793;DHT22;37850;53.178;6.376;2022-10-13T12:27:30;14.00;99.90
51793;DHT22;37850;53.178;6.376;2022-10-13T12:30:01;14.00;99.90
51793;DHT22;37850;53.178;6.376;2022-10-13T12:32:32;14.00;99.90
51793;DHT22;37850;53.178;6.376;2022-10-13T12:35:16;14.10;99.90
51793;DHT22;37850;53.178;6.376;2022-10-13T12:37:43;14.10;99.90
51793;DHT22;37850;53.178;6.376;2022-10-13T12:40:13;14.10;99.90
51793;DHT22;37850;53.178;6.376;2022-10-13T12:42:40;14.10;99.90
51793;DHT22;37850;53.178;6.376;2022-10-13T12:45:06;14.10;99.90
51793;DHT22;37850;53.178;6.376;2022-10-13T12:53:03;14.20;99.90
51793;DHT22;37850;53.178;6.376;2022-10-13T12:55:30;14.20;99.90
51793;DHT22;37850;53.178;6.376;2022-10-13T12:57:56;14.20;99.90
51793;DHT22;37850;53.178;6.376;2022-10-13T13:00:27;14.20;99.90
51793;DHT22;37850;53.178;6.376;2022-10-13T13:03:00;14.20;99.90
51793;DHT22;37850;53.178;6.376;2022-10-13T13:05:41;14.20;99.90
51793;DHT22;37850;53.178;6.376;2022-10-13T13:08:22;14.20;99.90
51793;DHT22;37850;53.178;6.376;2022-10-13T13:11:05;14.20;99.90
51793;DHT22;37850;53.178;6.376;2022-10-13T13:13:32;14.20;99.90
51793;DHT22;37850;53.178;6.376;2022-10-13T13:16:30;14.20;99.90
51793;DHT22;37850;53.178;6.376;2022-10-13T13:18:56;14.30;99.90
51793;DHT22;37850;53.178;6.376;2022-10-13T13:21:22;14.20;99.90
51793;DHT22;37850;53.178;6.376;2022-10-13T13:23:48;14.20;99.90
51793;DHT22;37850;53.178;6.376;2022-10-13T13:26:21;14.20;99.90
51793;DHT22;37850;53.178;6.376;2022-10-13T13:28:54;14.20;99.90
51793;DHT22;37850;53.178;6.376;2022-10-13T13:31:23;14.20;99.90
51793;DHT22;37850;53.178;6.376;2022-10-13T13:33:50;14.20;99.90
51793;DHT22;37850;53.178;6.376;2022-10-13T13:36:25;14.30;99.90
51793;DHT22;37850;53.178;6.376;2022-10-13T13:38:52;14.30;99.90
51793;DHT22;37850;53.178;6.376;2022-10-13T13:41:19;14.20;99.90
51793;DHT22;37850;53.178;6.376;2022-10-13T13:43:44;14.30;99.90
51793;DHT22;37850;53.178;6.376;2022-10-13T13:46:23;14.30;99.90
51793;DHT22;37850;53.178;6.376;2022-10-13T13:48:49;14.30;99.90
51793;DHT22;37850;53.178;6.376;2022-10-13T13:51:15;14.30;99.90
51793;DHT22;37850;53.178;6.376;2022-10-13T13:53:41;14.30;99.90
51793;DHT22;37850;53.178;6.376;2022-10-13T13:56:15;14.30;99.90
51793;DHT22;37850;53.178;6.376;2022-10-13T13:58:41;14.30;99.90
51793;DHT22;37850;53.178;6.376;2022-10-13T14:01:08;14.30;99.90
51793;DHT22;37850;53.178;6.376;2022-10-13T14:03:34;14.30;99.90
51793;DHT22;37850;53.178;6.376;2022-10-13T14:05:59;14.30;99.90
51793;DHT22;37850;53.178;6.376;2022-10-13T14:08:28;14.30;99.90
51793;DHT22;37850;53.178;6.376;2022-10-13T14:10:55;14.30;99.90
51793;DHT22;37850;53.178;6.376;2022-10-13T14:13:21;14.30;99.90
51793;DHT22;37850;53.178;6.376;2022-10-13T14:15:56;14.30;99.90
51793;DHT22;37850;53.178;6.376;2022-10-13T14:18:23;14.30;99.90
51793;DHT22;37850;53.178;6.376;2022-10-13T14:20:48;14.30;99.90
51793;DHT22;37850;53.178;6.376;2022-10-13T14:23:14;14.30;99.90
51793;DHT22;37850;53.178;6.376;2022-10-13T14:25:40;14.40;99.90
51793;DHT22;37850;53.178;6.376;2022-10-13T14:28:06;14.50;99.90
51793;DHT22;37850;53.178;6.376;2022-10-13T14:30:31;14.30;99.90
51793;DHT22;37850;53.178;6.376;2022-10-13T14:32:57;14.30;99.90
51793;DHT22;37850;53.178;6.376;2022-10-13T14:35:23;14.30;99.90
51793;DHT22;37850;53.178;6.376;2022-10-13T14:37:49;14.30;99.90
51793;DHT22;37850;53.178;6.376;2022-10-13T14:40:14;14.30;99.90
51793;DHT22;37850;53.178;6.376;2022-10-13T14:42:40;14.30;99.90
51793;DHT22;37850;53.178;6.376;2022-10-13T14:45:07;14.30;99.90
51793;DHT22;37850;53.178;6.376;2022-10-13T14:47:33;14.30;99.90
51793;DHT22;37850;53.178;6.376;2022-10-13T14:49:59;14.30;99.90
51793;DHT22;37850;53.178;6.376;2022-10-13T14:52:26;14.30;99.90
51793;DHT22;37850;53.178;6.376;2022-10-13T14:54:52;14.30;99.90
51793;DHT22;37850;53.178;6.376;2022-10-13T14:57:18;14.30;99.90
51793;DHT22;37850;53.178;6.376;2022-10-13T14:59:45;14.30;99.90
51793;DHT22;37850;53.178;6.376;2022-10-13T15:02:11;14.30;99.90
51793;DHT22;37850;53.178;6.376;2022-10-13T15:04:39;14.30;99.90
51793;DHT22;37850;53.178;6.376;2022-10-13T15:07:05;14.30;99.90
51793;DHT22;37850;53.178;6.376;2022-10-13T15:09:31;14.30;99.90
51793;DHT22;37850;53.178;6.376;2022-10-13T15:11:57;14.30;99.90
51793;DHT22;37850;53.178;6.376;2022-10-13T15:14:23;14.30;99.90
51793;DHT22;37850;53.178;6.376;2022-10-13T15:16:48;14.30;99.90
51793;DHT22;37850;53.178;6.376;2022-10-13T15:19:14;14.30;99.90
51793;DHT22;37850;53.178;6.376;2022-10-13T15:21:40;14.20;99.90
51793;DHT22;37850;53.178;6.376;2022-10-13T15:24:06;14.20;99.90
51793;DHT22;37850;53.178;6.376;2022-10-13T15:26:32;14.20;99.90
51793;DHT22;37850;53.178;6.376;2022-10-13T15:29:17;14.30;99.90
51793;DHT22;37850;53.178;6.376;2022-10-13T15:32:10;14.20;99.90
51793;DHT22;37850;53.178;6.376;2022-10-13T15:34:54;14.20;99.90
51793;DHT22;37850;53.178;6.376;2022-10-13T15:37:40;14.20;99.90
51793;DHT22;37850;53.178;6.376;2022-10-13T15:40:24;14.20;99.90
51793;DHT22;37850;53.178;6.376;2022-10-13T15:43:09;14.20;99.90
51793;DHT22;37850;53.178;6.376;2022-10-13T15:45:56;14.20;99.90
51793;DHT22;37850;53.178;6.376;2022-10-13T15:48:43;14.20;99.90
51793;DHT22;37850;53.178;6.376;2022-10-13T15:51:16;14.10;99.90
51793;DHT22;37850;53.178;6.376;2022-10-13T15:53:44;14.20;99.90
51793;DHT22;37850;53.178;6.376;2022-10-13T15:56:10;14.10;99.90
51793;DHT22;37850;53.178;6.376;2022-10-13T15:58:36;14.10;99.90
51793;DHT22;37850;53.178;6.376;2022-10-13T16:01:09;14.10;99.90
51793;DHT22;37850;53.178;6.376;2022-10-13T16:03:36;14.10;99.90
51793;DHT22;37850;53.178;6.376;2022-10-13T16:06:06;14.10;99.90
51793;DHT22;37850;53.178;6.376;2022-10-13T16:08:40;14.10;99.90
51793;DHT22;37850;53.178;6.376;2022-10-13T16:11:10;14.10;99.90
51793;DHT22;37850;53.178;6.376;2022-10-13T16:13:36;14.10;99.90
51793;DHT22;37850;53.178;6.376;2022-10-13T16:16:03;14.10;99.90
51793;DHT22;37850;53.178;6.376;2022-10-13T16:18:30;14.10;99.90
51793;DHT22;37850;53.178;6.376;2022-10-13T16:20:56;14.10;99.90
51793;DHT22;37850;53.178;6.376;2022-10-13T16:23:22;14.10;99.90
51793;DHT22;37850;53.178;6.376;2022-10-13T16:25:49;14.10;99.90
51793;DHT22;37850;53.178;6.376;2022-10-13T16:28:14;14.10;99.90
51793;DHT22;37850;53.178;6.376;2022-10-13T16:30:41;14.10;99.90
51793;DHT22;37850;53.178;6.376;2022-10-13T16:33:07;14.00;99.90
51793;DHT22;37850;53.178;6.376;2022-10-13T16:35:32;14.00;99.90
51793;DHT22;37850;53.178;6.376;2022-10-13T16:38:01;14.00;99.90
51793;DHT22;37850;53.178;6.376;2022-10-13T16:40:27;14.00;99.90
51793;DHT22;37850;53.178;6.376;2022-10-13T16:42:53;13.90;99.90
51793;DHT22;37850;53.178;6.376;2022-10-13T16:45:19;14.00;99.90
51793;DHT22;37850;53.178;6.376;2022-10-13T16:47:47;13.90;99.90
51793;DHT22;37850;53.178;6.376;2022-10-13T16:50:15;14.00;99.90
51793;DHT22;37850;53.178;6.376;2022-10-13T16:52:41;13.90;99.90
51793;DHT22;37850;53.178;6.376;2022-10-13T16:55:07;13.90;99.90
51793;DHT22;37850;53.178;6.376;2022-10-13T16:57:33;13.90;99.90
51793;DHT22;37850;53.178;6.376;2022-10-13T16:59:59;13.90;99.90
51793;DHT22;37850;53.178;6.376;2022-10-13T17:02:25;13.90;99.90
51793;DHT22;37850;53.178;6.376;2022-10-13T17:04:51;13.90;99.90
51793;DHT22;37850;53.178;6.376;2022-10-13T17:07:16;13.90;99.90
51793;DHT22;37850;53.178;6.376;2022-10-13T17:09:46;13.90;99.90
51793;DHT22;37850;53.178;6.376;2022-10-13T17:12:11;13.80;99.90
51793;DHT22;37850;53.178;6.376;2022-10-13T17:14:37;13.90;99.90
51793;DHT22;37850;53.178;6.376;2022-10-13T17:17:03;13.80;99.90
51793;DHT22;37850;53.178;6.376;2022-10-13T17:19:29;13.80;99.90
51793;DHT22;37850;53.178;6.376;2022-10-13T17:21:55;13.70;99.90
51793;DHT22;37850;53.178;6.376;2022-10-13T17:24:20;13.80;99.90